Terminal Aerodrome Forecast
Issued by NWS Melbourne, FL

Current Version | Previous Version | Text Only | Print | Product List | Glossary On
Versions: 1 2 3 4 5 6 7 8 9 10 11 12 13 14 15 16 17 18 19 20 21
796
FTUS42 KMLB 262136 AAB
TAFMLB
TAF AMD
KMLB 262136Z 2622/2718 VRB04KT P6SM VCSH FEW045 BKN120
     FM270000 15004KT P6SM FEW030 SCT120 BKN250
     FM271400 25005KT P6SM SCT025=

USA.gov is the U.S. government's official web portal to all federal, state and local government web resources and services.